createdAt,value
2019-02-05T00:03:58.998Z,7.27
2019-02-05T00:09:05.089Z,8.50
2019-02-05T00:14:30.828Z,7.70
2019-02-05T00:19:35.212Z,7.60
2019-02-05T00:24:39.583Z,7.47
2019-02-05T00:29:43.931Z,8.30
2019-02-05T00:34:48.304Z,7.60
2019-02-05T00:39:53.054Z,7.80
2019-02-05T00:44:57.443Z,6.93
2019-02-05T00:50:01.795Z,7.87
2019-02-05T00:55:09.424Z,7.40
2019-02-05T01:00:31.229Z,7.90
2019-02-05T01:05:35.507Z,7.50
2019-02-05T01:10:39.958Z,7.63
2019-02-05T01:15:44.367Z,8.40
2019-02-05T01:20:48.692Z,7.80
2019-02-05T01:25:53.265Z,7.87
2019-02-05T01:30:57.655Z,8.37
2019-02-05T01:36:02.075Z,8.80
2019-02-05T01:41:06.472Z,7.83
2019-02-05T01:46:11.396Z,8.30
2019-02-05T01:51:15.707Z,7.77
2019-02-05T01:56:20.154Z,8.33
2019-02-05T02:01:24.989Z,8.60
2019-02-05T02:06:29.386Z,8.30
2019-02-05T02:11:33.711Z,8.07
2019-02-05T02:16:38.406Z,8.47
2019-02-05T02:21:42.826Z,8.30
2019-02-05T02:26:52.049Z,8.43
2019-02-05T02:31:53.248Z,8.23
2019-02-05T02:36:57.609Z,8.83
2019-02-05T02:42:02.005Z,9.17
2019-02-05T02:47:06.383Z,8.50
2019-02-05T02:52:10.757Z,8.73
2019-02-05T02:57:15.111Z,7.67
2019-02-05T03:02:19.943Z,9.73
2019-02-05T03:07:24.515Z,9.40
2019-02-05T03:12:28.883Z,9.60
2019-02-05T03:17:33.247Z,10.27
2019-02-05T03:22:37.725Z,8.70
2019-02-05T03:27:42.110Z,9.47
2019-02-05T03:32:46.478Z,8.73
2019-02-05T03:37:51.201Z,8.40
2019-02-05T03:42:55.773Z,8.70
2019-02-05T03:48:02.075Z,8.40
2019-02-05T03:53:15.421Z,8.10
2019-02-05T03:58:31.732Z,8.33
2019-02-05T04:03:54.389Z,8.80
2019-02-05T04:09:20.026Z,7.87
2019-02-05T04:14:50.189Z,8.63
2019-02-05T04:20:20.520Z,8.30
2019-02-05T04:25:32.189Z,7.73
2019-02-05T04:31:03.854Z,9.03
2019-02-05T04:36:26.266Z,8.23
2019-02-05T04:41:42.360Z,8.50
2019-02-05T04:47:10.672Z,8.73
2019-02-05T04:52:22.164Z,9.70
2019-02-05T04:57:35.315Z,8.27
2019-02-05T05:02:42.877Z,9.13
2019-02-05T05:08:02.356Z,7.67
2019-02-05T05:13:07.276Z,8.13
2019-02-05T05:18:11.633Z,8.00
2019-02-05T05:23:16.212Z,7.97
2019-02-05T05:28:20.622Z,7.62
2019-02-05T05:33:25.065Z,7.90
2019-02-05T05:38:29.438Z,7.93
2019-02-05T05:43:33.815Z,7.43
2019-02-05T05:48:38.217Z,7.60
2019-02-05T05:53:43.692Z,6.87
2019-02-05T05:58:48.053Z,8.30
2019-02-05T06:03:52.476Z,7.60
2019-02-05T06:08:57.000Z,8.07
2019-02-05T06:14:01.389Z,8.03
2019-02-05T06:19:05.899Z,7.43
2019-02-05T06:24:10.376Z,7.97
2019-02-05T06:29:14.869Z,8.60
2019-02-05T06:34:19.280Z,8.10
2019-02-05T06:39:23.763Z,9.13
2019-02-05T06:44:28.080Z,8.50
2019-02-05T06:49:32.510Z,9.07
2019-02-05T06:54:36.871Z,9.20
2019-02-05T06:59:41.248Z,9.20
2019-02-05T07:04:45.779Z,8.60
2019-02-05T07:09:50.158Z,9.10
2019-02-05T07:14:54.520Z,9.03
2019-02-05T07:19:58.894Z,9.47
2019-02-05T07:25:03.375Z,9.33
2019-02-05T07:30:17.360Z,10.10
2019-02-05T07:35:21.929Z,10.00
2019-02-05T07:40:26.564Z,10.30
2019-02-05T07:45:30.964Z,10.33
2019-02-05T07:50:35.329Z,10.37
2019-02-05T07:55:40.087Z,10.60
2019-02-05T08:00:44.519Z,10.80
2019-02-05T08:05:49.085Z,10.37
2019-02-05T08:10:54.004Z,10.53
2019-02-05T08:15:58.392Z,10.53
2019-02-05T08:21:02.853Z,10.63
2019-02-05T08:26:07.217Z,11.03
2019-02-05T08:31:11.722Z,10.37
2019-02-05T08:36:16.180Z,10.93
2019-02-05T08:41:20.544Z,11.50
2019-02-05T08:46:24.904Z,11.53
2019-02-05T08:51:29.470Z,11.00
2019-02-05T08:56:33.847Z,11.03
2019-02-05T09:01:39.286Z,10.53
2019-02-05T09:06:43.711Z,10.17
2019-02-05T09:11:48.086Z,10.63
2019-02-05T09:16:52.438Z,11.13
2019-02-05T09:21:56.836Z,10.10
2019-02-05T09:27:01.193Z,9.80
2019-02-05T09:32:05.921Z,9.67
2019-02-05T09:37:10.301Z,10.20
2019-02-05T09:42:14.649Z,8.83
2019-02-05T09:47:19.064Z,9.60
2019-02-05T09:52:23.483Z,9.40
2019-02-05T09:57:28.230Z,8.83
2019-02-05T10:02:32.634Z,8.63
2019-02-05T10:07:36.978Z,8.87
2019-02-05T10:12:42.427Z,9.30
2019-02-05T10:17:46.813Z,9.60
2019-02-05T10:22:52.997Z,9.65
2019-02-05T10:27:57.373Z,9.73
2019-02-05T10:33:01.989Z,10.27
2019-02-05T10:38:06.547Z,10.10
2019-02-05T10:43:10.988Z,10.63
2019-02-05T10:48:15.496Z,9.73
2019-02-05T10:53:19.858Z,10.40
2019-02-05T10:58:24.218Z,9.90
2019-02-05T11:03:28.572Z,9.90
2019-02-05T11:08:33.011Z,10.30
2019-02-05T11:13:37.403Z,10.57
2019-02-05T11:18:41.842Z,10.40
2019-02-05T11:23:46.266Z,10.93
2019-02-05T11:28:50.989Z,11.23
2019-02-05T11:33:55.450Z,10.83
2019-02-05T11:38:59.840Z,11.23
2019-02-05T11:44:04.251Z,10.60
2019-02-05T11:49:08.629Z,11.07
2019-02-05T11:54:13.027Z,10.90
2019-02-05T11:59:17.421Z,11.03
2019-02-05T12:04:21.811Z,11.20
2019-02-05T12:09:26.336Z,11.20
2019-02-05T12:14:30.792Z,11.57
2019-02-05T12:19:35.328Z,11.70
2019-02-05T12:24:39.723Z,11.57
2019-02-05T12:29:44.148Z,11.80
2019-02-05T12:34:48.507Z,12.33
2019-02-05T12:39:54.567Z,12.30
2019-02-05T12:44:58.961Z,12.77
2019-02-05T12:50:04.553Z,12.23
2019-02-05T12:55:14.099Z,12.70
2019-02-05T13:00:24.767Z,12.20
2019-02-05T13:05:29.241Z,13.30
2019-02-05T13:10:36.540Z,12.47
2019-02-05T13:15:40.916Z,12.60
2019-02-05T13:20:45.309Z,12.63
2019-02-05T13:25:49.678Z,12.47
2019-02-05T13:30:54.060Z,12.47
2019-02-05T13:35:58.535Z,12.47
2019-02-05T13:41:02.901Z,13.27
2019-02-05T13:46:07.454Z,14.10
2019-02-05T13:51:11.843Z,13.87
2019-02-05T13:56:16.197Z,13.17
2019-02-05T14:01:20.552Z,13.33
2019-02-05T14:06:24.970Z,12.97
2019-02-05T14:11:29.528Z,13.07
2019-02-05T14:16:34.046Z,13.50
2019-02-05T14:21:38.494Z,12.67
2019-02-05T14:26:42.991Z,12.87
2019-02-05T14:31:47.358Z,12.90
2019-02-05T14:36:51.785Z,13.20
2019-02-05T14:41:56.179Z,13.07
2019-02-05T14:47:00.592Z,13.43
2019-02-05T14:52:05.208Z,12.53
2019-02-05T14:57:09.734Z,13.03
2019-02-05T15:02:14.213Z,13.83
2019-02-05T15:07:18.633Z,12.30
2019-02-05T15:12:23.567Z,12.70
2019-02-05T15:17:28.045Z,13.40
2019-02-05T15:22:32.449Z,13.10
2019-02-05T15:27:36.836Z,13.10
2019-02-05T15:32:45.892Z,13.37
2019-02-05T15:37:50.247Z,13.43
2019-02-05T15:42:54.706Z,12.90
2019-02-05T15:47:59.237Z,13.67
2019-02-05T15:53:03.625Z,14.23
2019-02-05T15:58:08.789Z,12.83
2019-02-05T16:03:13.547Z,13.20
2019-02-05T16:08:18.002Z,13.33
2019-02-05T16:13:22.373Z,11.37
2019-02-05T16:18:26.907Z,11.33
2019-02-05T16:23:32.992Z,10.80
2019-02-05T16:28:37.399Z,11.37
2019-02-05T16:33:41.849Z,10.80
2019-02-05T16:38:46.421Z,11.00
2019-02-05T16:43:51.804Z,12.77
2019-02-05T16:48:56.623Z,12.83
2019-02-05T16:54:01.006Z,11.80
2019-02-05T16:59:06.105Z,12.93
2019-02-05T17:04:10.466Z,12.80
2019-02-05T17:09:15.312Z,13.43
2019-02-05T17:14:19.796Z,14.23
2019-02-05T17:19:24.253Z,13.87
2019-02-05T17:24:28.711Z,14.27
2019-02-05T17:29:33.075Z,14.33
2019-02-05T17:34:37.565Z,13.17
2019-02-05T17:39:41.947Z,13.17
2019-02-05T17:44:46.304Z,14.10
2019-02-05T17:49:51.011Z,14.90
2019-02-05T17:54:55.425Z,14.53
2019-02-05T17:59:59.906Z,14.97
2019-02-05T18:05:07.180Z,15.73
2019-02-05T18:10:14.530Z,15.70
2019-02-05T18:15:28.635Z,17.10
2019-02-05T18:20:33.029Z,16.90
2019-02-05T18:25:37.581Z,16.60
2019-02-05T18:30:42.157Z,17.03
2019-02-05T18:35:46.968Z,17.97
2019-02-05T18:40:51.337Z,19.00
2019-02-05T18:45:55.695Z,18.70
2019-02-05T18:51:00.158Z,18.53
2019-02-05T18:56:04.981Z,18.90
2019-02-05T19:01:09.537Z,19.80
2019-02-05T19:06:14.851Z,20.20
2019-02-05T19:11:19.251Z,20.80
2019-02-05T19:16:23.627Z,20.40
2019-02-05T19:21:28.041Z,20.90
2019-02-05T19:26:32.968Z,20.53
2019-02-05T19:31:39.583Z,20.87
2019-02-05T19:36:45.585Z,21.20
2019-02-05T19:41:49.956Z,21.40
2019-02-05T19:46:56.072Z,19.10
2019-02-05T19:52:03.290Z,21.07
2019-02-05T19:57:07.790Z,22.03
2019-02-05T20:02:12.771Z,21.83
2019-02-05T20:07:18.535Z,22.43
2019-02-05T20:12:24.535Z,22.07
2019-02-05T20:17:29.659Z,22.17
2019-02-05T20:22:34.024Z,21.70
2019-02-05T20:27:38.432Z,21.93
2019-02-05T20:32:42.783Z,21.93
2019-02-05T20:37:47.165Z,22.50
2019-02-05T20:42:52.109Z,22.50
2019-02-05T20:47:56.458Z,22.67
2019-02-05T20:53:00.843Z,22.47
2019-02-05T20:58:05.869Z,21.23
2019-02-05T21:03:10.251Z,22.40
2019-02-05T21:08:14.987Z,22.30
2019-02-05T21:13:19.399Z,21.10
2019-02-05T21:18:23.946Z,21.10
2019-02-05T21:23:28.334Z,22.27
2019-02-05T21:28:32.718Z,22.27
2019-02-05T21:33:37.180Z,23.13
2019-02-05T21:38:41.569Z,22.73
2019-02-05T21:43:45.916Z,22.83
2019-02-05T21:48:50.307Z,22.23
2019-02-05T21:53:54.690Z,21.90
2019-02-05T21:58:59.098Z,21.97
2019-02-05T22:04:03.620Z,21.83
2019-02-05T22:09:10.666Z,21.80
2019-02-05T22:14:15.331Z,21.77
2019-02-05T22:19:21.076Z,23.47
2019-02-05T22:24:26.485Z,23.63
2019-02-05T22:29:30.881Z,23.37
2019-02-05T22:34:39.243Z,22.17
2019-02-05T22:39:41.360Z,21.90
2019-02-05T22:44:45.726Z,22.70
2019-02-05T22:49:50.104Z,23.23
2019-02-05T22:54:54.499Z,22.53
2019-02-05T22:59:58.836Z,22.93
2019-02-05T23:05:15.123Z,21.77
2019-02-05T23:10:25.726Z,23.23
2019-02-05T23:15:30.221Z,23.13
2019-02-05T23:20:34.557Z,23.63
2019-02-05T23:25:38.909Z,23.63
2019-02-05T23:30:43.550Z,23.80
2019-02-05T23:35:48.180Z,23.27
2019-02-05T23:40:52.548Z,23.90
2019-02-05T23:46:01.436Z,23.53
2019-02-05T23:51:02.988Z,23.73
2019-02-05T23:56:07.535Z,23.73
